Flight Track Log - Related Links

Times and Time Zones

All times are in EDT time to prevent confusion due to time zone crossing. See the SEJ345 flight status page for this flight to view local times or setup timezone preferences in your user account.

Time Position Orientation Groundspeed Altitude Reporting Facility
EDT Latitude Longitude Course Direction KTS MPH feet Rate Location/Type
Wed 12:22:37 PM 21.6740 72.2090 166° South 408 470 31,000  Level FlightAware ADS-B
Wed 12:23:17 PM 21.6030 72.2270 167° South 406 467 31,000  Level FlightAware ADS-B
Wed 12:23:52 PM 21.5470 72.2420 166° South 406 467 31,000  Level FlightAware ADS-B
Wed 12:24:47 PM 21.4440 72.2690 166° South 404 465 31,000  Level FlightAware ADS-B
Wed 12:25:37 PM 21.3460 72.2940 167° South 403 464 31,000  Level FlightAware ADS-B
Wed 12:26:17 PM 21.2810 72.3120 166° South 403 464 31,000  Level FlightAware ADS-B
Wed 12:26:57 PM 21.2000 72.3320 167° South 402 463 31,000  Level FlightAware ADS-B
Wed 12:27:32 PM 21.1430 72.3470 166° South 402 463 31,000  Level FlightAware ADS-B
Wed 12:28:27 PM 21.0390 72.3740 166° South 402 463 31,000  Level FlightAware ADS-B
Wed 12:29:07 PM 20.9640 72.3940 166° South 403 464 31,000  Level FlightAware ADS-B
Wed 12:29:47 PM 20.8920 72.4120 167° South 405 466 31,000  Level FlightAware ADS-B
Wed 12:30:27 PM 20.8180 72.4320 166° South 407 468 31,000  Level FlightAware ADS-B
Wed 12:31:02 PM 20.7590 72.4470 167° South 408 470 31,000  Level FlightAware ADS-B
Wed 12:32:07 PM 20.6360 72.4780 167° South 409 471 31,000  Level FlightAware ADS-B
Wed 12:32:52 PM 20.5530 72.5000 166° South 410 472 31,000  Level FlightAware ADS-B
Wed 12:33:32 PM 20.4780 72.5190 167° South 410 472 31,000  Level FlightAware ADS-B
Wed 12:34:07 PM 20.4150 72.5350 167° South 409 471 31,000  Level FlightAware ADS-B
Wed 12:34:57 PM 20.3200 72.5600 166° South 409 471 31,000  Level FlightAware ADS-B
Wed 12:35:37 PM 20.2470 72.5790 166° South 409 471 31,000  Level FlightAware ADS-B
Wed 12:36:17 PM 20.1740 72.6050 162° South 413 475 31,000  Level FlightAware ADS-B
Wed 12:37:02 PM 20.1000 72.6490 151° Southeast 414 476 31,000  Level FlightAware ADS-B
Wed 12:37:42 PM 20.0340 72.6890 150° Southeast 413 475 31,000  Level FlightAware ADS-B
Wed 12:38:22 PM 19.9660 72.7290 151° Southeast 412 474 31,000  Level FlightAware ADS-B
Wed 12:39:07 PM 19.8920 72.7730 151° Southeast 411 473 31,000 -282 Level FlightAware ADS-B
Wed 12:39:47 PM 19.8230 72.8150 150° Southeast 410 472 30,600 -847 Descending FlightAware ADS-B
Wed 12:40:32 PM 19.7510 72.8580 151° Southeast 402 463 29,800 -988 Descending FlightAware ADS-B
Wed 12:41:12 PM 19.6860 72.8970 151° Southeast 394 453 29,200 -988 Descending FlightAware ADS-B
Wed 12:41:57 PM 19.6220 72.9520 141° Southeast 394 453 28,400 -1,059 Descending FlightAware ADS-B
Wed 12:42:37 PM 19.5680 73.0030 138° Southeast 389 448 27,700 -975 Descending FlightAware ADS-B
Wed 12:43:17 PM 19.5130 73.0540 139° Southeast 386 444 27,100 -1,275 Descending FlightAware ADS-B
Wed 12:43:57 PM 19.4600 73.1020 140° Southeast 379 436 26,000 -1,694 Descending FlightAware ADS-B
Wed 12:44:42 PM 19.4020 73.1570 138° Southeast 373 429 24,700 -1,765 Descending FlightAware ADS-B
Wed 12:45:22 PM 19.3510 73.2040 139° Southeast 367 422 23,500 -1,765 Descending FlightAware ADS-B
Wed 12:46:07 PM 19.2920 73.2580 139° Southeast 362 417 22,200 -1,765 Descending FlightAware ADS-B
Wed 12:46:47 PM 19.2420 73.3040 139° Southeast 357 411 21,000 -1,906 Descending FlightAware ADS-B
Wed 12:47:32 PM 19.1880 73.3540 139° Southeast 360 414 19,500 -1,275 Descending FlightAware ADS-B
Wed 12:48:07 PM 19.1470 73.3930 138° Southeast 359 413 19,300 -1,575 Descending FlightAware ADS-B
Wed 12:48:52 PM 19.0900 73.4450 139° Southeast 343 395 17,400 -2,200 Descending FlightAware ADS-B
Wed 12:49:37 PM 19.0360 73.4970 138° Southeast 338 389 16,000 -1,976 Descending FlightAware ADS-B
Wed 12:50:17 PM 19.0000 73.5520 125° Southeast 339 390 14,600 -1,906 Descending FlightAware ADS-B
Wed 12:51:02 PM 18.9610 73.6120 124° Southeast 332 382 13,300 -1,725 Descending FlightAware ADS-B
Wed 12:51:37 PM 18.9330 73.6550 125° Southeast 327 376 12,300 -1,650 Descending FlightAware ADS-B
Wed 12:52:22 PM 18.8940 73.7190 123° Southeast 316 364 11,100 -1,000 Descending FlightAware ADS-B
Wed 12:53:07 PM 18.8620 73.7700 124° Southeast 284 327 10,800 -424 Descending FlightAware ADS-B
Wed 12:53:47 PM 18.8330 73.8170 123° Southeast 253 291 10,500 -600 Descending FlightAware ADS-B
Wed 12:54:27 PM 18.8100 73.8550 123° Southeast 243 280 10,000 -857 Descending FlightAware ADS-B
Wed 12:54:57 PM 18.7900 73.8860 124° Southeast 239 275 9,500 -1,067 Descending FlightAware ADS-B
Wed 12:55:12 PM 18.7800 73.9010 125° Southeast 239 275 9,200 -933 Descending FlightAware ADS-B
Wed 12:55:42 PM 18.7630 73.9280 124° Southeast 237 273 8,800 -1,000 Descending FlightAware ADS-B
Wed 12:56:12 PM 18.7430 73.9580 125° Southeast 234 269 8,200 -1,091 Descending FlightAware ADS-B
Wed 12:56:37 PM 18.7270 73.9810 126° Southeast 232 267 7,800 -982 Descending FlightAware ADS-B
Wed 12:57:07 PM 18.7110 74.0050 125° Southeast 235 270 7,300 -1,091 Descending FlightAware ADS-B
Wed 12:57:32 PM 18.6910 74.0340 126° Southeast 236 272 6,800 -1,200 Descending FlightAware ADS-B
Wed 12:57:47 PM 18.6820 74.0470 126° Southeast 236 272 6,500 -1,067 Descending FlightAware ADS-B
Wed 12:58:17 PM 18.6640 74.0750 124° Southeast 239 275 6,000 -1,067 Descending FlightAware ADS-B
Wed 12:58:32 PM 18.6570 74.0920 113° Southeast 236 272 5,700 -1,200 Descending FlightAware ADS-B
Wed 12:58:42 PM 18.6530 74.1010 115° Southeast 236 272 5,500 -750 Descending FlightAware ADS-B
Wed 12:59:12 PM 18.6410 74.1330 112° Southeast 221 254 5,200 -533 Descending FlightAware ADS-B
Wed 12:59:27 PM 18.6320 74.1430 134° Southeast 215 247 5,100 -720 Descending FlightAware ADS-B
Wed 12:59:37 PM 18.6230 74.1470 157° South 215 247 4,900 -1,200 Descending FlightAware ADS-B
Wed 01:00:07 PM 18.5970 74.1350 204° Southwest 195 224 4,300 -933 Descending FlightAware ADS-B
Wed 01:00:22 PM 18.5910 74.1220 244° Southwest 185 213 4,200 -533 Descending FlightAware ADS-B
Wed 01:00:52 PM 18.5840 74.0980 253° West 167 192 3,900 -436 Descending FlightAware ADS-B
Wed 01:01:17 PM 18.5830 74.0790 267° West 163 188 3,800  Descending FlightAware ADS-B
Wed 01:01:47 PM 18.5830 74.0560 270° West 154 177 3,900  Climbing FlightAware ADS-B
Wed 01:02:17 PM 18.5830 74.0320 270° West 143 165 3,800 -327 Descending FlightAware ADS-B
Wed 01:02:42 PM 18.5830 74.0160 270° West 142 163 3,600 -655 Descending FlightAware ADS-B
Wed 01:03:12 PM 18.5830 73.9950 270° West 143 165 3,200 -764 Descending FlightAware ADS-B
Wed 01:03:37 PM 18.5820 73.9770 267° West 138 159 2,900 -764 Descending FlightAware ADS-B
Wed 01:04:07 PM 18.5800 73.9600 263° West 139 160 2,500 -800 Descending FlightAware ADS-B
Wed 01:04:22 PM 18.5810 73.9480 275° West 139 160 2,300 -750 Descending FlightAware ADS-B
Wed 01:04:47 PM 18.5820 73.9310 274° West 141 162 2,000 -720 Descending FlightAware ADS-B
Wed 01:08:00 PM 18.5821 73.9197 96° East  Level Estimated
Wed 01:09:00 PM 18.5821 73.9197 289° West  Level Estimated
Wed 01:10:00 PM 18.5821 73.9197 289° West  Level Estimated
Wed 01:11:00 PM 18.5821 73.9197 289° West  Level Estimated
Wed 01:12:00 PM 18.5821 73.9197 289° West  Level Estimated
Wed 01:13:00 PM 18.5821 73.9197 289° West  Level Estimated
Wed 01:14:00 PM 18.5821 73.9197 289° West  Level Estimated
Wed 01:15:00 PM 18.5821 73.9197 289° West  Level Estimated
Wed 01:16:00 PM 18.5821 73.9197 289° West  Level Estimated
Wed 01:17:00 PM 18.5821 73.9197 289° West  Level Estimated
Wed 01:18:00 PM 18.5821 73.9197 289° West  Level Estimated
Wed 01:19:00 PM 18.5821 73.9197 289° West  Level Estimated
Wed 01:20:00 PM 18.5821 73.9197 289° West  Level Estimated
Wed 01:21:00 PM 18.5821 73.9197 289° West  Level Estimated
Wed 01:22:00 PM 18.5821 73.9197 289° West  Level Estimated
Wed 01:23:00 PM 18.5821 73.9197 289° West  Level Estimated
Wed 01:24:00 PM 18.5821 73.9197 289° West  Level Estimated
Wed 01:25:00 PM 18.5821 73.9197 289° West  Level Estimated
Wed 01:26:00 PM 18.5821 73.9197 289° West  Level Estimated

Login

Don't have an account? Register now (free) for customized features, flight alerts, and more!